createdAt,value
2023-08-08T00:02:16.445Z,99764.41
2023-08-08T00:04:42.965Z,99762.31
2023-08-08T00:07:09.536Z,99764.63
2023-08-08T00:09:36.048Z,99759.41
2023-08-08T00:12:02.678Z,99766.91
2023-08-08T00:14:29.222Z,99768.09
2023-08-08T00:16:55.744Z,99769.84
2023-08-08T00:19:22.295Z,99772.50
2023-08-08T00:21:48.839Z,99773.81
2023-08-08T00:24:15.300Z,99777.31
2023-08-08T00:26:41.849Z,99780.69
2023-08-08T00:29:08.433Z,99778.84
2023-08-08T00:31:35.008Z,99774.22
2023-08-08T00:34:01.557Z,99773.31
2023-08-08T00:36:28.135Z,99767.22
2023-08-08T00:38:54.763Z,99762.44
2023-08-08T00:41:21.280Z,99766.44
2023-08-08T00:43:47.767Z,99761.28
2023-08-08T00:46:15.217Z,99772.47
2023-08-08T00:48:41.737Z,99776.59
2023-08-08T00:51:08.286Z,99772.47
2023-08-08T00:53:34.853Z,99767.47
2023-08-08T00:56:01.648Z,99770.03
2023-08-08T00:58:28.434Z,99778.97
2023-08-08T01:00:58.720Z,99770.59
2023-08-08T01:03:25.365Z,99771.19
2023-08-08T01:06:19.649Z,99775.00
2023-08-08T01:08:58.758Z,99771.97
2023-08-08T01:11:28.552Z,99765.78
2023-08-08T01:13:56.754Z,99770.00
2023-08-08T01:16:25.207Z,99772.59
2023-08-08T01:18:53.549Z,99778.00
2023-08-08T01:21:20.053Z,99767.59
2023-08-08T01:23:54.106Z,99767.59
2023-08-08T01:26:21.978Z,99766.09
2023-08-08T01:28:48.669Z,99760.03
2023-08-08T01:31:15.188Z,99768.19
2023-08-08T01:33:41.771Z,99761.38
2023-08-08T01:36:21.795Z,99758.28
2023-08-08T01:38:50.022Z,99758.81
2023-08-08T01:41:17.285Z,99760.63
2023-08-08T01:43:44.491Z,99767.97
2023-08-08T01:46:11.482Z,99762.44
2023-08-08T01:48:38.247Z,99769.41
2023-08-08T01:51:04.787Z,99760.97
2023-08-08T01:53:31.390Z,99774.13
2023-08-08T01:55:57.878Z,99766.78
2023-08-08T01:58:24.455Z,99764.75
2023-08-08T02:00:51.009Z,99771.44
2023-08-08T02:03:17.846Z,99774.91
2023-08-08T02:05:44.481Z,99777.53
2023-08-08T02:08:11.104Z,99770.75
2023-08-08T02:10:37.617Z,99777.66
2023-08-08T02:13:04.319Z,99784.69
2023-08-08T02:15:30.844Z,99770.56
2023-08-08T02:17:57.344Z,99775.13
2023-08-08T02:20:23.892Z,99769.19
2023-08-08T02:22:50.360Z,99780.19
2023-08-08T02:25:17.000Z,99783.78
2023-08-08T02:27:43.532Z,99778.59
2023-08-08T02:30:10.736Z,99785.03
2023-08-08T02:32:37.349Z,99785.22
2023-08-08T02:35:03.960Z,99791.13
2023-08-08T02:37:30.440Z,99804.66
2023-08-08T02:39:56.892Z,99805.00
2023-08-08T02:42:23.451Z,99795.50
2023-08-08T02:44:50.003Z,99809.47
2023-08-08T02:47:16.518Z,99813.00
2023-08-08T02:49:43.026Z,99805.81
2023-08-08T02:52:09.596Z,99806.72
2023-08-08T02:54:36.145Z,99813.81
2023-08-08T02:57:02.680Z,99814.81
2023-08-08T02:59:29.289Z,99811.66
2023-08-08T03:01:56.069Z,99811.66
2023-08-08T03:04:22.640Z,99809.59
2023-08-08T03:06:49.271Z,99808.25
2023-08-08T03:09:15.808Z,99808.03
2023-08-08T03:11:44.939Z,99821.38
2023-08-08T03:14:11.456Z,99822.78
2023-08-08T03:16:38.138Z,99825.75
2023-08-08T03:19:04.729Z,99830.13
2023-08-08T03:21:31.504Z,99836.41
2023-08-08T03:23:58.689Z,99832.78
2023-08-08T03:26:25.206Z,99846.81
2023-08-08T03:28:54.328Z,99854.25
2023-08-08T03:31:21.837Z,99852.31
2023-08-08T03:33:48.939Z,99849.06
2023-08-08T03:36:15.958Z,99857.53
2023-08-08T03:38:45.522Z,99861.72
2023-08-08T03:41:12.118Z,99863.31
2023-08-08T03:43:39.889Z,99866.66
2023-08-08T03:46:06.757Z,99862.94
2023-08-08T03:48:33.428Z,99861.63
2023-08-08T03:50:59.936Z,99864.03
2023-08-08T03:53:26.464Z,99862.66
2023-08-08T03:55:53.013Z,99864.03
2023-08-08T03:58:19.977Z,99860.53
2023-08-08T04:00:49.297Z,99872.53
2023-08-08T04:03:17.017Z,99879.03
2023-08-08T04:05:48.147Z,99876.69
2023-08-08T04:08:15.992Z,99882.41
2023-08-08T04:10:43.572Z,99889.75
2023-08-08T04:13:11.612Z,99893.66
2023-08-08T04:15:38.078Z,99898.13
2023-08-08T04:18:07.539Z,99883.00
2023-08-08T04:20:35.346Z,99889.78
2023-08-08T04:23:02.025Z,99893.56
2023-08-08T04:25:29.078Z,99899.13
2023-08-08T04:27:55.774Z,99900.06
2023-08-08T04:30:22.464Z,99899.97
2023-08-08T04:32:49.161Z,99901.91
2023-08-08T04:35:15.758Z,99895.91
2023-08-08T04:37:43.096Z,99902.03
2023-08-08T04:40:10.186Z,99901.19
2023-08-08T04:42:36.757Z,99902.94
2023-08-08T04:45:03.720Z,99901.97
2023-08-08T04:47:30.271Z,99900.72
2023-08-08T04:49:56.910Z,99901.38
2023-08-08T04:52:23.543Z,99908.25
2023-08-08T04:54:50.099Z,99912.47
2023-08-08T04:57:16.614Z,99913.94
2023-08-08T04:59:43.796Z,99908.31
2023-08-08T05:02:10.489Z,99915.41
2023-08-08T05:04:37.013Z,99912.50
2023-08-08T05:07:03.635Z,99912.75
2023-08-08T05:09:30.219Z,99915.53
2023-08-08T05:11:56.823Z,99924.16
2023-08-08T05:14:23.362Z,99914.56
2023-08-08T05:16:49.891Z,99923.19
2023-08-08T05:19:16.575Z,99930.31
2023-08-08T05:21:44.041Z,99924.31
2023-08-08T05:24:10.646Z,99925.94
2023-08-08T05:26:37.127Z,99922.22
2023-08-08T05:29:03.609Z,99929.78
2023-08-08T05:31:30.151Z,99929.41
2023-08-08T05:33:56.682Z,99935.31
2023-08-08T05:36:23.426Z,99929.50
2023-08-08T05:38:49.968Z,99932.69
2023-08-08T05:41:16.497Z,99927.94
2023-08-08T05:43:43.744Z,99932.97
2023-08-08T05:46:10.400Z,99932.81
2023-08-08T05:48:37.040Z,99935.53
2023-08-08T05:51:06.065Z,99942.25
2023-08-08T05:53:33.578Z,99944.53
2023-08-08T05:56:00.110Z,99942.47
2023-08-08T05:58:26.731Z,99937.00
2023-08-08T06:00:53.406Z,99932.66
2023-08-08T06:03:19.914Z,99937.31
2023-08-08T06:05:46.443Z,99935.25
2023-08-08T06:08:14.523Z,99933.81
2023-08-08T06:13:18.689Z,99941.56
2023-08-08T06:15:45.244Z,99948.31
2023-08-08T06:18:11.825Z,99963.38
2023-08-08T06:20:38.363Z,99953.19
2023-08-08T06:23:05.067Z,99957.16
2023-08-08T06:25:31.649Z,99964.03
2023-08-08T06:27:58.592Z,99961.13
2023-08-08T06:30:25.128Z,99958.63
2023-08-08T06:32:52.783Z,99960.31
2023-08-08T06:35:19.312Z,99959.72
2023-08-08T06:37:45.840Z,99963.03
2023-08-08T06:40:14.153Z,99956.56
2023-08-08T06:42:40.709Z,99949.06
2023-08-08T06:45:07.835Z,99954.69
2023-08-08T06:47:34.336Z,99953.22
2023-08-08T06:50:00.862Z,99950.13
2023-08-08T06:52:27.346Z,99954.53
2023-08-08T06:54:53.859Z,99962.22
2023-08-08T06:57:20.386Z,99961.16
2023-08-08T06:59:51.614Z,99950.50
2023-08-08T07:02:19.958Z,99966.41
2023-08-08T07:04:46.623Z,99962.81
2023-08-08T07:07:13.130Z,99968.88
2023-08-08T07:09:40.051Z,99965.91
2023-08-08T07:12:07.154Z,99969.22
2023-08-08T07:14:33.966Z,99965.00
2023-08-08T07:17:00.566Z,99963.13
2023-08-08T07:19:27.026Z,99970.41
2023-08-08T07:21:53.523Z,99976.66
2023-08-08T07:24:21.457Z,99971.34
2023-08-08T07:26:48.119Z,99978.84
2023-08-08T07:29:14.635Z,99960.63
2023-08-08T07:31:41.436Z,99978.97
2023-08-08T07:34:08.024Z,99982.28
2023-08-08T07:36:34.543Z,99983.44
2023-08-08T07:39:01.210Z,99984.19
2023-08-08T07:41:30.737Z,99988.94
2023-08-08T07:43:57.200Z,99990.72
2023-08-08T07:46:24.266Z,99989.13
2023-08-08T07:48:50.805Z,99984.66
2023-08-08T07:51:17.491Z,99989.34
2023-08-08T07:53:46.350Z,99985.72
2023-08-08T07:56:13.884Z,99990.59
2023-08-08T07:58:40.465Z,99990.03
2023-08-08T08:01:08.231Z,99980.78
2023-08-08T08:03:34.999Z,99992.81
2023-08-08T08:06:01.713Z,99989.09
2023-08-08T08:08:28.369Z,99991.03
2023-08-08T08:10:54.895Z,99994.16
2023-08-08T08:13:21.412Z,99994.69
2023-08-08T08:15:47.877Z,99986.84
2023-08-08T08:18:16.622Z,99988.75
2023-08-08T08:20:44.008Z,99985.56
2023-08-08T08:23:11.040Z,100000.41
2023-08-08T08:25:37.551Z,100004.22
2023-08-08T08:28:04.347Z,100003.16
2023-08-08T08:30:30.882Z,100001.94
2023-08-08T08:33:00.407Z,100001.34
2023-08-08T08:35:27.302Z,100002.44
2023-08-08T08:37:53.839Z,100012.47
2023-08-08T08:40:20.390Z,100016.75
2023-08-08T08:42:48.394Z,100013.31
2023-08-08T08:45:16.788Z,100002.41
2023-08-08T08:47:46.915Z,99998.97
2023-08-08T08:50:15.307Z,99997.84
2023-08-08T08:52:43.658Z,99996.91
2023-08-08T08:55:10.561Z,99993.94
2023-08-08T08:57:38.386Z,99988.56
2023-08-08T09:00:07.180Z,99993.78
2023-08-08T09:02:33.875Z,99972.47
2023-08-08T09:05:03.172Z,99986.84
2023-08-08T09:07:32.654Z,99978.00
2023-08-08T09:09:59.161Z,99981.25
2023-08-08T09:12:25.819Z,99997.31
2023-08-08T09:14:59.774Z,99986.34
2023-08-08T09:17:37.934Z,99984.06
2023-08-08T09:20:14.953Z,99988.28
2023-08-08T09:22:41.647Z,99990.44
2023-08-08T09:25:09.133Z,99988.38
2023-08-08T09:27:36.702Z,99999.66
2023-08-08T09:30:04.125Z,99992.22
2023-08-08T09:32:33.964Z,99991.91
2023-08-08T09:35:00.921Z,99997.22
2023-08-08T09:37:29.642Z,99997.97
2023-08-08T09:40:06.445Z,100002.72
2023-08-08T09:42:33.041Z,100005.13
2023-08-08T09:45:00.347Z,99997.97
2023-08-08T09:47:31.866Z,99989.75
2023-08-08T09:50:02.614Z,99994.50
2023-08-08T09:52:29.756Z,99998.47
2023-08-08T09:54:56.777Z,99992.81
2023-08-08T09:57:26.434Z,99987.19
2023-08-08T09:59:53.780Z,100002.97
2023-08-08T10:02:20.657Z,99994.94
2023-08-08T10:04:48.233Z,99991.44
2023-08-08T10:07:16.295Z,99987.75
2023-08-08T10:09:43.260Z,99987.34
2023-08-08T10:12:10.036Z,99985.69
2023-08-08T10:14:39.018Z,100002.88
2023-08-08T10:17:06.729Z,99990.56
2023-08-08T10:19:34.094Z,99998.06
2023-08-08T10:22:04.898Z,99991.44
2023-08-08T10:24:39.024Z,99983.97
2023-08-08T10:27:06.223Z,99975.38
2023-08-08T10:29:34.793Z,99977.13
2023-08-08T10:32:04.629Z,99978.28
2023-08-08T10:34:47.919Z,99981.97
2023-08-08T10:37:16.863Z,99976.03
2023-08-08T10:39:53.292Z,99973.19
2023-08-08T10:42:21.296Z,99976.03
2023-08-08T10:44:56.392Z,99983.94
2023-08-08T10:47:36.979Z,99963.47
2023-08-08T10:50:12.785Z,99965.59
2023-08-08T10:52:55.305Z,99979.28
2023-08-08T10:55:24.953Z,99973.69
2023-08-08T10:57:56.873Z,99963.66
2023-08-08T11:00:30.633Z,99961.84
2023-08-08T11:02:59.137Z,99965.47
2023-08-08T11:05:27.646Z,99962.16
2023-08-08T11:07:55.660Z,99968.34
2023-08-08T11:10:23.654Z,99963.28
2023-08-08T11:13:05.127Z,99951.19
2023-08-08T11:15:34.382Z,99956.25
2023-08-08T11:18:02.108Z,99963.16
2023-08-08T11:20:33.037Z,99959.16
2023-08-08T11:23:00.180Z,99949.94
2023-08-08T11:25:28.256Z,99953.34
2023-08-08T11:27:55.935Z,99947.50
2023-08-08T11:30:23.790Z,99948.69
2023-08-08T11:35:25.920Z,99940.84
2023-08-08T11:37:53.653Z,99938.59
2023-08-08T11:40:21.348Z,99937.94
2023-08-08T11:42:48.940Z,99932.41
2023-08-08T11:45:16.006Z,99934.72
2023-08-08T11:47:43.059Z,99935.75
2023-08-08T11:50:12.034Z,99927.94
2023-08-08T11:52:43.642Z,99925.75
2023-08-08T11:55:11.210Z,99923.22
2023-08-08T11:57:38.550Z,99921.47
2023-08-08T12:00:15.460Z,99921.97
2023-08-08T12:02:44.086Z,99918.84
2023-08-08T12:05:13.247Z,99920.00
2023-08-08T12:07:45.879Z,99915.13
2023-08-08T12:10:20.369Z,99908.03
2023-08-08T12:12:48.068Z,99905.66
2023-08-08T12:15:16.397Z,99909.88
2023-08-08T12:17:44.227Z,99903.97
2023-08-08T12:20:11.297Z,99909.72
2023-08-08T12:22:38.266Z,99907.97
2023-08-08T12:25:05.431Z,99905.56
2023-08-08T12:27:32.182Z,99905.19
2023-08-08T12:29:59.274Z,99897.88
2023-08-08T12:32:29.281Z,99905.75
2023-08-08T12:34:58.894Z,99884.94
2023-08-08T12:37:25.606Z,99890.16
2023-08-08T12:39:52.381Z,99897.91
2023-08-08T12:42:19.637Z,99899.22
2023-08-08T12:44:48.191Z,99882.81
2023-08-08T12:47:15.989Z,99887.53
2023-08-08T12:49:43.086Z,99888.19
2023-08-08T12:52:10.316Z,99890.16
2023-08-08T12:54:37.455Z,99888.44
2023-08-08T12:57:05.152Z,99885.63
2023-08-08T12:59:32.021Z,99887.63
2023-08-08T13:01:59.344Z,99880.97
2023-08-08T13:04:26.482Z,99890.03
2023-08-08T13:06:53.214Z,99885.78
2023-08-08T13:09:19.973Z,99885.06
2023-08-08T13:11:46.943Z,99887.06
2023-08-08T13:14:13.494Z,99891.53
2023-08-08T13:16:40.142Z,99890.69
2023-08-08T13:19:07.116Z,99883.53
2023-08-08T13:21:33.728Z,99888.94
2023-08-08T13:24:00.331Z,99903.03
2023-08-08T13:26:26.965Z,99903.63
2023-08-08T13:28:53.924Z,99901.97
2023-08-08T13:31:20.626Z,99897.44
2023-08-08T13:33:47.163Z,99896.97
2023-08-08T13:36:13.703Z,99904.84
2023-08-08T13:38:40.339Z,99897.22
2023-08-08T13:41:06.914Z,99904.06
2023-08-08T13:43:33.510Z,99895.34
2023-08-08T13:46:01.703Z,99896.84
2023-08-08T13:48:28.416Z,99893.34
2023-08-08T13:50:55.237Z,99893.88
2023-08-08T13:53:21.883Z,99889.13
2023-08-08T13:55:48.530Z,99897.41
2023-08-08T13:58:15.128Z,99880.69
2023-08-08T14:00:42.213Z,99895.34
2023-08-08T14:03:10.424Z,99890.31
2023-08-08T14:05:38.445Z,99896.66
2023-08-08T14:08:06.011Z,99894.97
2023-08-08T14:10:32.689Z,99888.31
2023-08-08T14:12:59.368Z,99881.19
2023-08-08T14:15:26.012Z,99880.03
2023-08-08T14:17:52.774Z,99887.50
2023-08-08T14:20:20.207Z,99899.41
2023-08-08T14:22:49.935Z,99894.41
2023-08-08T14:25:16.824Z,99889.31
2023-08-08T14:27:43.563Z,99888.25
2023-08-08T14:30:11.459Z,99888.16
2023-08-08T14:32:38.191Z,99894.97
2023-08-08T14:35:05.884Z,99892.91
2023-08-08T14:37:33.311Z,99884.16
2023-08-08T14:40:00.172Z,99883.69
2023-08-08T14:42:26.836Z,99882.97
2023-08-08T14:44:53.357Z,99876.00
2023-08-08T14:47:19.936Z,99862.34
2023-08-08T14:49:46.573Z,99870.25
2023-08-08T14:52:13.622Z,99863.16
2023-08-08T14:54:40.754Z,99864.16
2023-08-08T14:57:07.280Z,99863.41
2023-08-08T14:59:33.895Z,99865.72
2023-08-08T15:02:00.773Z,99864.38
2023-08-08T15:04:27.438Z,99861.78
2023-08-08T15:06:54.160Z,99853.53
2023-08-08T15:09:20.804Z,99867.69
2023-08-08T15:11:47.428Z,99860.53
2023-08-08T15:14:14.001Z,99856.19
2023-08-08T15:16:40.534Z,99849.56
2023-08-08T15:19:07.341Z,99839.00
2023-08-08T15:21:33.978Z,99839.94
2023-08-08T15:24:00.576Z,99848.91
2023-08-08T15:26:27.124Z,99848.59
2023-08-08T15:28:53.599Z,99845.28
2023-08-08T15:31:20.211Z,99844.25
2023-08-08T15:33:46.784Z,99838.75
2023-08-08T15:36:13.442Z,99843.50
2023-08-08T15:38:40.054Z,99842.72
2023-08-08T15:41:06.619Z,99844.59
2023-08-08T15:43:33.568Z,99835.28
2023-08-08T15:46:00.566Z,99837.53
2023-08-08T15:48:27.813Z,99839.44
2023-08-08T15:50:54.831Z,99853.81
2023-08-08T15:53:23.884Z,99843.38
2023-08-08T15:55:50.558Z,99845.75
2023-08-08T15:58:17.202Z,99844.41
2023-08-08T16:00:43.793Z,99841.19
2023-08-08T16:03:10.546Z,99840.13
2023-08-08T16:05:37.518Z,99834.56
2023-08-08T16:08:04.467Z,99841.47
2023-08-08T16:10:31.103Z,99842.91
2023-08-08T16:12:57.712Z,99841.22
2023-08-08T16:15:25.795Z,99840.75
2023-08-08T16:17:52.463Z,99837.28
2023-08-08T16:20:19.758Z,99836.13
2023-08-08T16:22:46.362Z,99842.56
2023-08-08T16:25:12.982Z,99834.59
2023-08-08T16:27:39.692Z,99835.28
2023-08-08T16:30:07.896Z,99826.97
2023-08-08T16:32:34.542Z,99831.25
2023-08-08T16:35:01.173Z,99836.00
2023-08-08T16:37:27.885Z,99846.94
2023-08-08T16:39:56.078Z,99839.09
2023-08-08T16:42:22.708Z,99837.88
2023-08-08T16:44:49.201Z,99847.88
2023-08-08T16:47:15.798Z,99844.66
2023-08-08T16:49:42.359Z,99837.91
2023-08-08T16:52:09.035Z,99847.03
2023-08-08T16:54:35.705Z,99839.91
2023-08-08T16:57:03.238Z,99852.63
2023-08-08T16:59:29.878Z,99842.97
2023-08-08T17:01:56.470Z,99836.09
2023-08-08T17:04:23.304Z,99842.28
2023-08-08T17:06:49.912Z,99846.56
2023-08-08T17:09:16.832Z,99836.34
2023-08-08T17:11:43.460Z,99845.84
2023-08-08T17:14:10.312Z,99835.66
2023-08-08T17:16:38.322Z,99846.47
2023-08-08T17:19:05.280Z,99847.88
2023-08-08T17:21:31.998Z,99838.47
2023-08-08T17:23:58.710Z,99835.75
2023-08-08T17:26:25.334Z,99849.06
2023-08-08T17:28:52.929Z,99842.25
2023-08-08T17:31:20.056Z,99850.94
2023-08-08T17:33:46.729Z,99846.28
2023-08-08T17:36:13.559Z,99835.78
2023-08-08T17:38:40.543Z,99851.31
2023-08-08T17:41:07.495Z,99853.53
2023-08-08T17:43:34.164Z,99858.28
2023-08-08T17:46:00.774Z,99837.31
2023-08-08T17:48:27.487Z,99853.47
2023-08-08T17:50:57.393Z,99851.91
2023-08-08T17:53:24.091Z,99862.06
2023-08-08T17:55:50.816Z,99855.03
2023-08-08T17:58:17.928Z,99858.06
2023-08-08T18:00:44.757Z,99862.28
2023-08-08T18:03:11.568Z,99849.41
2023-08-08T18:05:38.262Z,99852.22
2023-08-08T18:08:05.427Z,99853.56
2023-08-08T18:10:35.883Z,99841.75
2023-08-08T18:13:06.126Z,99854.19
2023-08-08T18:15:32.674Z,99851.38
2023-08-08T18:17:59.325Z,99853.56
2023-08-08T18:20:25.935Z,99858.06
2023-08-08T18:22:53.313Z,99864.22
2023-08-08T18:25:20.394Z,99870.78
2023-08-08T18:27:47.008Z,99866.50
2023-08-08T18:30:16.445Z,99869.91
2023-08-08T18:32:44.083Z,99872.88
2023-08-08T18:35:10.883Z,99863.13
2023-08-08T18:37:39.280Z,99876.53
2023-08-08T18:40:12.773Z,99871.78
2023-08-08T18:42:39.981Z,99881.63
2023-08-08T18:45:07.235Z,99880.84
2023-08-08T18:47:33.910Z,99877.31
2023-08-08T18:50:00.523Z,99891.53
2023-08-08T18:52:27.177Z,99890.31
2023-08-08T18:54:53.770Z,99882.41
2023-08-08T18:57:20.360Z,99894.56
2023-08-08T18:59:46.843Z,99880.38
2023-08-08T19:02:13.442Z,99888.56
2023-08-08T19:04:39.974Z,99884.84
2023-08-08T19:07:06.726Z,99901.75
2023-08-08T19:09:33.319Z,99900.75
2023-08-08T19:12:01.790Z,99904.09
2023-08-08T19:14:29.133Z,99893.25
2023-08-08T19:16:55.779Z,99902.66
2023-08-08T19:19:22.554Z,99895.78
2023-08-08T19:21:49.199Z,99901.22
2023-08-08T19:24:17.226Z,99909.56
2023-08-08T19:26:44.072Z,99898.31
2023-08-08T19:29:10.674Z,99893.28
2023-08-08T19:31:37.225Z,99893.28
2023-08-08T19:34:07.143Z,99892.88
2023-08-08T19:36:35.156Z,99899.97
2023-08-08T19:39:01.938Z,99879.28
2023-08-08T19:41:28.587Z,99888.03
2023-08-08T19:43:55.209Z,99888.88
2023-08-08T19:46:22.269Z,99887.84
2023-08-08T19:48:49.821Z,99891.81
2023-08-08T19:51:16.407Z,99909.56
2023-08-08T19:53:43.343Z,99906.22
2023-08-08T19:56:10.119Z,99910.81
2023-08-08T19:58:36.695Z,99916.84
2023-08-08T20:01:03.498Z,99915.41
2023-08-08T20:03:30.150Z,99913.28
2023-08-08T20:05:56.856Z,99899.09
2023-08-08T20:08:23.480Z,99915.97
2023-08-08T20:10:50.064Z,99917.84
2023-08-08T20:13:16.786Z,99915.28
2023-08-08T20:15:43.441Z,99921.53
2023-08-08T20:18:10.047Z,99898.50
2023-08-08T20:20:36.673Z,99924.41
2023-08-08T20:23:03.493Z,99927.09
2023-08-08T20:25:30.023Z,99912.91
2023-08-08T20:27:56.608Z,99919.78
2023-08-08T20:30:23.309Z,99921.44
2023-08-08T20:32:49.912Z,99920.53
2023-08-08T20:35:16.769Z,99915.25
2023-08-08T20:37:43.530Z,99915.22
2023-08-08T20:40:10.380Z,99903.09
2023-08-08T20:42:37.294Z,99914.75
2023-08-08T20:45:05.307Z,99916.97
2023-08-08T20:47:31.966Z,99916.94
2023-08-08T20:50:00.216Z,99918.19
2023-08-08T20:52:26.699Z,99927.53
2023-08-08T20:54:53.648Z,99921.00
2023-08-08T20:57:20.269Z,99919.31
2023-08-08T20:59:46.908Z,99919.75
2023-08-08T21:02:13.563Z,99912.34
2023-08-08T21:07:24.198Z,99921.06
2023-08-08T21:09:51.570Z,99916.03
2023-08-08T21:12:18.428Z,99915.78
2023-08-08T21:14:45.007Z,99917.44
2023-08-08T21:17:11.616Z,99917.44
2023-08-08T21:19:38.199Z,99911.91
2023-08-08T21:22:04.831Z,99911.31
2023-08-08T21:24:32.542Z,99900.59
2023-08-08T21:26:59.331Z,99922.13
2023-08-08T21:29:25.914Z,99908.72
2023-08-08T21:31:52.531Z,99931.66
2023-08-08T21:34:19.126Z,99909.09
2023-08-08T21:36:45.786Z,99915.75
2023-08-08T21:39:12.633Z,99908.19
2023-08-08T21:41:39.152Z,99918.00
2023-08-08T21:44:05.898Z,99921.28
2023-08-08T21:46:32.560Z,99919.53
2023-08-08T21:48:59.890Z,99918.69
2023-08-08T21:51:26.497Z,99925.06
2023-08-08T21:53:53.027Z,99914.84
2023-08-08T21:56:19.616Z,99915.50
2023-08-08T21:58:46.304Z,99919.66
2023-08-08T22:01:12.939Z,99925.22
2023-08-08T22:03:39.551Z,99925.84
2023-08-08T22:06:06.984Z,99930.34
2023-08-08T22:08:33.554Z,99918.91
2023-08-08T22:11:00.284Z,99924.22
2023-08-08T22:13:28.355Z,99922.88
2023-08-08T22:15:55.160Z,99920.41
2023-08-08T22:18:22.188Z,99900.66
2023-08-08T22:20:48.837Z,99923.19
2023-08-08T22:23:20.218Z,99918.91
2023-08-08T22:25:48.793Z,99918.56
2023-08-08T22:28:15.238Z,99920.59
2023-08-08T22:30:42.096Z,99924.31
2023-08-08T22:33:08.718Z,99914.94
2023-08-08T22:35:35.644Z,99919.13
2023-08-08T22:38:02.412Z,99910.56
2023-08-08T22:40:30.341Z,99911.78
2023-08-08T22:42:57.006Z,99918.75
2023-08-08T22:45:23.570Z,99917.72
2023-08-08T22:47:50.245Z,99913.56
2023-08-08T22:50:16.851Z,99910.38
2023-08-08T22:52:43.407Z,99908.84
2023-08-08T22:55:10.094Z,99907.41
2023-08-08T22:57:36.847Z,99912.75
2023-08-08T23:00:07.257Z,99909.56
2023-08-08T23:02:34.802Z,99909.38
2023-08-08T23:05:01.675Z,99908.34
2023-08-08T23:07:28.266Z,99906.84
2023-08-08T23:09:54.925Z,99888.44
2023-08-08T23:12:21.746Z,99908.25
2023-08-08T23:14:48.716Z,99896.34
2023-08-08T23:17:15.326Z,99907.69
2023-08-08T23:19:42.018Z,99909.09
2023-08-08T23:22:08.722Z,99906.50
2023-08-08T23:24:35.486Z,99912.56
2023-08-08T23:27:02.278Z,99913.41
2023-08-08T23:29:29.047Z,99915.91
2023-08-08T23:31:55.781Z,99913.41
2023-08-08T23:34:22.752Z,99908.56
2023-08-08T23:36:49.380Z,99901.66
2023-08-08T23:39:19.026Z,99908.09
2023-08-08T23:41:45.644Z,99896.34
2023-08-08T23:44:12.218Z,99898.78
2023-08-08T23:46:38.887Z,99907.69
2023-08-08T23:49:07.291Z,99905.84
2023-08-08T23:51:37.107Z,99903.41
2023-08-08T23:54:04.130Z,99909.88
2023-08-08T23:56:30.715Z,99907.88
2023-08-08T23:58:57.324Z,99905.75
